Plum City, Wisconsin
Current Conditions -  °F | °C
As of 10:10 PM on Monday 22 Dec 2014 (Local Time) from KRGK Reporting Station
Light Rain Light Rain  
Wind Chill: 29°   Ceiling: 1200
Heat Index: 36°   Visibility: 4mi
Dew Point: 34°   Wind: 9mph
Humidity: 93%   Direction: 90°E
Pressure: 29.61"   Gusts: NA
Location:  44.63°N, 92.19°W
Report Text: KRGK 230410Z AUTO 09008KT 4SM -RA OVC012 02/01 A2961 RMK AO2
Loading
Personal Weather Stations






























Interactive Weather Map New forecast layout! Learn more

10-Day Weather Forecast

Advertisements
Track Severe Weather on mobile